Time;durP1;ratioP1;P1;durP2;ratioP2;P2;SDS_P1;SDS_P2;PMS_P1;PMS_P2;Temp;Humidity;BMP_temperature;BMP_pressure;BME280_temperature;BME280_humidity;BME280_pressure;Samples;Min_cycle;Max_cycle;Signal;HPM_P1;HPM_P2
2020/12/12 00:01:35;;;;;;;43.53;24.67;;;0.70;99.90;;;;;;5015069;28;20112;-89
2020/12/12 00:04:01;;;;;;;43.40;24.43;;;0.70;99.90;;;;;;5033153;28;20363;-89
2020/12/12 00:06:26;;;;;;;42.67;26.00;;;0.70;99.90;;;;;;5032717;28;20033;-89
2020/12/12 00:08:52;;;;;;;46.53;27.67;;;0.70;99.90;;;;;;5032786;28;20080;-88
2020/12/12 00:11:20;;;;;;;45.93;25.17;;;0.70;99.90;;;;;;5014872;28;20049;-89
2020/12/12 00:13:45;;;;;;;38.10;22.83;;;0.70;99.90;;;;;;5032836;28;20474;-88
2020/12/12 00:16:13;;;;;;;37.70;22.00;;;0.70;99.90;;;;;;5014891;28;20017;-89
2020/12/12 00:18:39;;;;;;;63.60;38.03;;;0.70;99.90;;;;;;5014835;28;20061;-89
2020/12/12 00:21:05;;;;;;;45.53;28.13;;;0.70;99.90;;;;;;5032713;28;20060;-89
2020/12/12 00:23:31;;;;;;;33.37;20.37;;;0.70;99.90;;;;;;5032823;28;20389;-89
2020/12/12 00:25:57;;;;;;;41.40;27.33;;;0.70;99.90;;;;;;5039925;28;20029;-89
2020/12/12 00:28:22;;;;;;;43.30;25.87;;;0.70;99.90;;;;;;5053700;28;20014;-89
2020/12/12 00:30:48;;;;;;;44.60;28.73;;;0.70;99.90;;;;;;5055183;28;20113;-89
2020/12/12 00:33:13;;;;;;;39.00;24.43;;;0.70;99.90;;;;;;5033075;28;20458;-88
2020/12/12 00:35:39;;;;;;;37.83;23.57;;;0.80;99.90;;;;;;5032609;28;20029;-88
2020/12/12 00:38:04;;;;;;;33.07;20.47;;;0.70;99.90;;;;;;5032970;28;20116;-88
2020/12/12 00:40:30;;;;;;;40.20;25.23;;;0.70;99.90;;;;;;5032658;28;20426;-89
2020/12/12 00:42:55;;;;;;;35.83;23.47;;;0.70;99.90;;;;;;5032888;28;20304;-89
2020/12/12 00:45:21;;;;;;;36.90;20.20;;;0.80;99.90;;;;;;5032773;28;20379;-89
2020/12/12 00:47:46;;;;;;;32.90;19.63;;;0.70;99.90;;;;;;5014764;28;20166;-88
2020/12/12 00:50:12;;;;;;;31.80;20.77;;;0.70;99.90;;;;;;5032701;28;20037;-88
2020/12/12 00:52:37;;;;;;;31.70;19.57;;;0.70;99.90;;;;;;5035768;28;20021;-89
2020/12/12 00:55:03;;;;;;;33.03;20.20;;;0.70;99.90;;;;;;5035926;28;20031;-88
2020/12/12 00:57:29;;;;;;;31.33;20.30;;;0.70;99.90;;;;;;5036124;28;20030;-91
2020/12/12 00:59:54;;;;;;;35.53;21.87;;;0.70;99.90;;;;;;5035361;28;20026;-92
2020/12/12 01:02:20;;;;;;;33.27;20.43;;;0.70;99.90;;;;;;5035740;28;20037;-92
2020/12/12 01:04:45;;;;;;;33.90;21.87;;;0.70;99.90;;;;;;5020067;28;20121;-92
2020/12/12 01:07:11;;;;;;;30.90;20.27;;;0.70;99.90;;;;;;5035935;28;20146;-92
2020/12/12 01:09:36;;;;;;;31.30;19.90;;;0.60;99.90;;;;;;5035685;28;20035;-92
2020/12/12 01:12:02;;;;;;;31.47;19.83;;;0.60;99.90;;;;;;5035539;28;20033;-93
2020/12/12 01:14:28;;;;;;;30.43;19.00;;;0.60;99.90;;;;;;5035856;28;20033;-92
2020/12/12 01:16:57;;;;;;;33.63;19.43;;;0.50;99.90;;;;;;5032012;28;20116;-93
2020/12/12 01:19:23;;;;;;;39.33;20.03;;;0.50;99.90;;;;;;5035101;28;20017;-92
2020/12/12 01:21:48;;;;;;;34.23;19.87;;;0.40;99.90;;;;;;5023440;28;20170;-92
2020/12/12 01:24:16;;;;;;;30.30;19.40;;;0.40;99.90;;;;;;5040527;28;20103;-93
2020/12/12 01:26:45;;;;;;;31.87;20.40;;;0.40;99.90;;;;;;5017530;28;20378;-91
2020/12/12 01:29:10;;;;;;;33.50;20.13;;;0.30;99.90;;;;;;5035014;28;20104;-93
2020/12/12 01:31:36;;;;;;;31.30;19.20;;;0.30;99.90;;;;;;5026104;28;20168;-92
2020/12/12 01:34:01;;;;;;;33.93;20.20;;;0.30;99.90;;;;;;5034866;28;20029;-92
2020/12/12 01:36:27;;;;;;;32.33;20.30;;;0.30;99.90;;;;;;5028940;28;20029;-91
2020/12/12 01:38:52;;;;;;;32.33;19.00;;;0.20;99.90;;;;;;5034761;28;20049;-91
2020/12/12 01:41:18;;;;;;;37.23;19.90;;;0.20;99.90;;;;;;5035049;28;20138;-91
2020/12/12 01:43:49;;;;;;;33.87;20.37;;;0.20;99.90;;;;;;5034841;28;20108;-91
2020/12/12 01:46:21;;;;;;;32.50;20.70;;;0.20;99.90;;;;;;5030880;28;20398;-91
2020/12/12 01:48:47;;;;;;;32.90;19.87;;;0.20;99.90;;;;;;5034681;28;20080;-92
2020/12/12 01:51:13;;;;;;;43.60;25.53;;;0.20;99.90;;;;;;5016743;28;20029;-91
2020/12/12 01:53:38;;;;;;;33.07;20.00;;;0.20;99.90;;;;;;5032902;28;20037;-91
2020/12/12 01:56:04;;;;;;;34.40;21.17;;;0.20;99.90;;;;;;5029029;28;20072;-91
2020/12/12 01:58:29;;;;;;;36.40;22.60;;;0.20;99.90;;;;;;5016642;28;20049;-91
2020/12/12 02:00:55;;;;;;;32.73;20.33;;;0.20;99.90;;;;;;5026971;28;20029;-91
2020/12/12 02:03:23;;;;;;;35.30;20.17;;;0.20;99.90;;;;;;5034224;28;20108;-91
2020/12/12 02:05:50;;;;;;;35.30;20.63;;;0.20;99.90;;;;;;5031713;28;20033;-91
2020/12/12 02:08:20;;;;;;;36.73;20.90;;;0.20;99.90;;;;;;5051785;28;20025;-91
2020/12/12 02:10:48;;;;;;;35.77;21.37;;;0.20;99.90;;;;;;5040118;28;20034;-92
2020/12/12 02:13:15;;;;;;;38.60;23.10;;;0.20;99.90;;;;;;5031835;28;20021;-91
2020/12/12 02:15:41;;;;;;;32.43;21.23;;;0.20;99.90;;;;;;5033559;28;20017;-91
2020/12/12 02:18:15;;;;;;;33.30;19.70;;;0.20;99.90;;;;;;5033711;28;20037;-91
2020/12/12 02:20:41;;;;;;;35.13;21.00;;;0.20;99.90;;;;;;5033959;28;20030;-92
2020/12/12 02:23:06;;;;;;;34.73;20.37;;;0.20;99.90;;;;;;5034151;28;20095;-92
2020/12/12 02:25:32;;;;;;;32.27;20.07;;;0.20;99.90;;;;;;5033969;28;20080;-91
2020/12/12 02:27:58;;;;;;;32.23;20.63;;;0.20;99.90;;;;;;5033961;28;20043;-91
2020/12/12 02:30:23;;;;;;;32.80;20.83;;;0.20;99.90;;;;;;5015981;28;20112;-91
2020/12/12 02:32:49;;;;;;;33.13;20.00;;;0.30;99.90;;;;;;5033886;28;20495;-92
2020/12/12 02:35:16;;;;;;;31.53;20.17;;;0.30;99.90;;;;;;5033709;28;20375;-92
2020/12/12 02:37:41;;;;;;;36.03;21.13;;;0.30;99.90;;;;;;5033529;28;20025;-91
2020/12/12 02:40:07;;;;;;;35.43;20.20;;;0.30;99.90;;;;;;5033986;28;20044;-89
2020/12/12 02:42:32;;;;;;;32.73;19.63;;;0.30;99.90;;;;;;5034460;28;20343;-89
2020/12/12 02:44:58;;;;;;;37.73;20.83;;;0.30;99.90;;;;;;5034220;28;20025;-89
2020/12/12 02:47:24;;;;;;;33.87;20.93;;;0.30;99.90;;;;;;5033330;28;20028;-90
2020/12/12 02:50:08;;;;;;;34.57;20.57;;;0.40;99.90;;;;;;5033830;28;20092;-90
2020/12/12 02:52:34;;;;;;;31.63;20.10;;;0.40;99.90;;;;;;5054276;28;20377;-90
2020/12/12 02:55:00;;;;;;;31.93;20.87;;;0.40;99.90;;;;;;5053792;28;20333;-89
2020/12/12 02:57:26;;;;;;;32.13;19.80;;;0.40;99.90;;;;;;5035632;28;20017;-90
2020/12/12 02:59:51;;;;;;;31.97;20.53;;;0.40;99.90;;;;;;5053739;28;20017;-89
2020/12/12 03:02:17;;;;;;;32.43;20.13;;;0.40;99.90;;;;;;5053608;28;20032;-89
2020/12/12 03:04:42;;;;;;;31.27;20.20;;;0.50;99.90;;;;;;5053536;28;20381;-90
2020/12/12 03:07:08;;;;;;;29.83;19.43;;;0.50;99.90;;;;;;5036146;28;20470;-90
2020/12/12 03:09:33;;;;;;;29.83;19.47;;;0.50;99.90;;;;;;5053729;28;20068;-90
2020/12/12 03:12:00;;;;;;;30.33;19.57;;;0.50;99.90;;;;;;5053523;28;20021;-88
2020/12/12 03:14:26;;;;;;;30.83;19.03;;;0.50;99.90;;;;;;5052921;28;20063;-89
2020/12/12 03:16:52;;;;;;;29.00;18.30;;;0.60;99.90;;;;;;5053415;28;20028;-89
2020/12/12 03:19:17;;;;;;;33.07;19.70;;;0.60;99.90;;;;;;5053914;28;20032;-89
2020/12/12 03:21:43;;;;;;;30.00;18.80;;;0.60;99.90;;;;;;5053726;28;20032;-89
2020/12/12 03:24:08;;;;;;;31.43;20.13;;;0.60;99.90;;;;;;5035362;28;20473;-88
2020/12/12 03:26:34;;;;;;;28.23;18.57;;;0.70;99.90;;;;;;5053271;28;20025;-89
2020/12/12 03:28:59;;;;;;;30.40;18.63;;;0.70;99.90;;;;;;5053046;28;20070;-89
2020/12/12 03:31:25;;;;;;;34.33;20.43;;;0.70;99.90;;;;;;5053270;28;20075;-89
2020/12/12 03:33:50;;;;;;;28.90;18.57;;;0.70;99.90;;;;;;5053606;28;20025;-89
2020/12/12 03:36:16;;;;;;;32.47;19.57;;;0.70;99.90;;;;;;5035388;28;20021;-90
2020/12/12 03:38:41;;;;;;;31.73;18.23;;;0.70;99.90;;;;;;5053009;28;20056;-90
2020/12/12 03:41:07;;;;;;;28.60;18.97;;;0.80;99.90;;;;;;5052852;28;20055;-89
2020/12/12 03:43:32;;;;;;;30.33;17.90;;;0.80;99.90;;;;;;5053572;28;20442;-90
2020/12/12 03:45:58;;;;;;;34.07;20.70;;;0.70;99.90;;;;;;5053428;28;20438;-90
2020/12/12 03:48:24;;;;;;;27.70;17.93;;;0.80;99.90;;;;;;5053669;28;20026;-90
2020/12/12 03:50:49;;;;;;;28.43;17.90;;;0.80;99.90;;;;;;5053181;28;20415;-90
2020/12/12 03:53:15;;;;;;;26.90;17.57;;;0.80;99.90;;;;;;5053526;28;20021;-90
2020/12/12 03:55:40;;;;;;;27.43;17.80;;;0.80;99.90;;;;;;5053375;28;20025;-90
2020/12/12 03:58:06;;;;;;;28.17;18.97;;;0.80;99.90;;;;;;5035346;28;20119;-91
2020/12/12 04:00:31;;;;;;;29.93;18.73;;;0.80;99.90;;;;;;5053173;28;20025;-91
2020/12/12 04:02:57;;;;;;;26.27;16.97;;;0.80;99.90;;;;;;5053414;28;20033;-90
2020/12/12 04:05:22;;;;;;;26.90;17.40;;;0.80;99.90;;;;;;5053243;28;20163;-90
2020/12/12 04:07:48;;;;;;;29.47;19.30;;;0.90;99.90;;;;;;5053277;28;20533;-90
2020/12/12 04:10:13;;;;;;;30.33;18.97;;;0.80;99.90;;;;;;5053032;28;20392;-89
2020/12/12 04:12:39;;;;;;;28.93;18.07;;;0.80;99.90;;;;;;5053064;28;20029;-89
2020/12/12 04:15:04;;;;;;;29.43;18.50;;;0.80;99.90;;;;;;5053049;28;20043;-90
2020/12/12 04:17:30;;;;;;;28.47;17.77;;;0.80;99.90;;;;;;5053292;28;20017;-91
2020/12/12 04:19:56;;;;;;;26.07;17.47;;;0.80;99.90;;;;;;5034827;28;20034;-90
2020/12/12 04:22:21;;;;;;;30.20;19.27;;;0.80;99.90;;;;;;5053111;28;20082;-91
2020/12/12 04:24:47;;;;;;;31.63;19.40;;;0.80;99.90;;;;;;5052784;28;20029;-89
2020/12/12 04:27:12;;;;;;;29.60;18.17;;;0.80;99.90;;;;;;5055802;28;20118;-89
2020/12/12 04:29:38;;;;;;;26.83;17.50;;;0.80;99.90;;;;;;5056790;28;20036;-89
2020/12/12 04:32:04;;;;;;;26.70;18.13;;;0.80;99.90;;;;;;5056418;28;20132;-89
2020/12/12 04:34:30;;;;;;;28.63;18.67;;;0.80;99.90;;;;;;5056608;28;20048;-89
2020/12/12 04:36:55;;;;;;;44.83;27.63;;;0.80;99.90;;;;;;5056660;28;20110;-90
2020/12/12 04:39:21;;;;;;;29.17;18.80;;;0.80;99.90;;;;;;5056329;28;20025;-90
2020/12/12 04:41:47;;;;;;;27.63;17.17;;;0.80;99.90;;;;;;5038850;28;20053;-90
2020/12/12 04:44:13;;;;;;;34.53;21.47;;;0.90;99.90;;;;;;5056483;28;20035;-89
2020/12/12 04:46:39;;;;;;;32.10;22.87;;;0.90;99.90;;;;;;5056589;28;20098;-90
2020/12/12 04:49:05;;;;;;;27.83;18.07;;;0.90;99.90;;;;;;5056162;28;20454;-90
2020/12/12 04:51:32;;;;;;;26.53;17.40;;;0.90;99.90;;;;;;5056297;28;20044;-89
2020/12/12 04:53:57;;;;;;;27.83;17.30;;;0.90;99.90;;;;;;5056290;28;20051;-90
2020/12/12 04:56:25;;;;;;;25.37;16.73;;;0.90;99.90;;;;;;5038270;28;20029;-90
2020/12/12 04:58:52;;;;;;;28.50;19.03;;;1.00;99.90;;;;;;5056289;28;20120;-90
2020/12/12 05:01:18;;;;;;;25.27;17.90;;;1.00;99.90;;;;;;5038212;28;20029;-89
2020/12/12 05:03:45;;;;;;;27.10;17.30;;;1.00;99.90;;;;;;5056112;28;20029;-89
2020/12/12 05:06:11;;;;;;;24.30;17.27;;;1.00;99.90;;;;;;5055865;28;20048;-89
2020/12/12 05:08:37;;;;;;;25.10;17.07;;;1.00;99.90;;;;;;5055999;28;20104;-89
2020/12/12 05:11:03;;;;;;;24.60;16.63;;;1.00;99.90;;;;;;5055819;28;20033;-89
2020/12/12 05:13:30;;;;;;;26.37;17.10;;;1.00;99.90;;;;;;5056129;28;20036;-89
2020/12/12 05:15:57;;;;;;;25.43;16.90;;;1.00;99.90;;;;;;5056508;28;20472;-89
2020/12/12 05:18:24;;;;;;;27.90;18.23;;;1.00;99.90;;;;;;5056402;28;20032;-89
2020/12/12 05:20:50;;;;;;;26.33;17.80;;;0.90;99.90;;;;;;5056024;28;20043;-89
2020/12/12 05:23:17;;;;;;;28.27;18.83;;;0.90;99.90;;;;;;5055732;28;20033;-90
2020/12/12 05:25:44;;;;;;;30.40;18.47;;;0.90;99.90;;;;;;5055302;28;20033;-89
2020/12/12 05:28:11;;;;;;;25.47;17.50;;;1.00;99.90;;;;;;5055792;28;20132;-90
2020/12/12 05:30:38;;;;;;;27.30;18.67;;;1.00;99.90;;;;;;5055375;28;20249;-90
2020/12/12 05:33:05;;;;;;;26.97;17.77;;;1.00;99.90;;;;;;5055827;28;20025;-89
2020/12/12 05:35:31;;;;;;;24.80;17.60;;;0.90;99.90;;;;;;5055303;28;20497;-89
2020/12/12 05:37:59;;;;;;;26.60;17.57;;;0.90;99.90;;;;;;5055003;28;20017;-90
2020/12/12 05:40:24;;;;;;;26.93;17.47;;;0.90;99.90;;;;;;5055234;28;20045;-90
2020/12/12 05:42:50;;;;;;;25.03;16.73;;;1.00;99.90;;;;;;5037352;28;20163;-89
2020/12/12 05:45:16;;;;;;;25.60;17.80;;;0.90;99.90;;;;;;5037300;28;20031;-89
2020/12/12 05:47:41;;;;;;;26.67;17.47;;;0.90;99.90;;;;;;5037332;28;20025;-89
2020/12/12 05:50:07;;;;;;;25.63;16.93;;;0.90;99.90;;;;;;5055072;28;20421;-90
2020/12/12 05:52:34;;;;;;;26.97;17.97;;;0.90;99.90;;;;;;5055269;28;20047;-90
2020/12/12 05:55:01;;;;;;;25.83;17.10;;;0.90;99.90;;;;;;5066779;28;20049;-90
2020/12/12 05:57:27;;;;;;;25.90;17.97;;;0.90;99.90;;;;;;5076357;28;20032;-88
2020/12/12 05:59:54;;;;;;;24.93;16.77;;;0.90;99.90;;;;;;5074594;28;20028;-87
2020/12/12 06:02:24;;;;;;;26.73;18.37;;;0.90;99.90;;;;;;5054894;28;20025;-88
2020/12/12 06:04:52;;;;;;;26.03;17.00;;;0.90;99.90;;;;;;5055140;28;20025;-87
2020/12/12 06:07:27;;;;;;;36.90;21.70;;;0.80;99.90;;;;;;5055311;28;20029;-88
2020/12/12 06:09:57;;;;;;;42.60;24.08;;;0.80;99.90;;;;;;5036961;28;20470;-90
2020/12/12 06:12:23;;;;;;;37.20;23.47;;;0.80;99.90;;;;;;5054846;28;20060;-88
2020/12/12 06:14:54;;;;;;;29.13;17.30;;;0.80;99.90;;;;;;5054973;28;20062;-89
2020/12/12 06:17:36;;;;;;;30.80;19.67;;;0.70;99.90;;;;;;5036901;28;20036;-89
2020/12/12 06:20:03;;;;;;;27.03;17.60;;;0.70;99.90;;;;;;5054550;28;20121;-89
2020/12/12 06:22:30;;;;;;;31.13;18.27;;;0.70;99.90;;;;;;5054501;28;20087;-90
2020/12/12 06:25:03;;;;;;;30.00;19.83;;;0.60;99.90;;;;;;5054604;28;20044;-89
2020/12/12 06:27:40;;;;;;;31.53;18.40;;;0.60;99.90;;;;;;5054504;28;20032;-89
2020/12/12 06:30:11;;;;;;;30.37;19.33;;;0.60;99.90;;;;;;5036511;28;20033;-88
2020/12/12 06:32:37;;;;;;;28.50;18.57;;;0.50;99.90;;;;;;5054743;28;20025;-89
2020/12/12 06:35:02;;;;;;;29.30;19.40;;;0.60;99.90;;;;;;5054630;28;20091;-90
2020/12/12 06:37:35;;;;;;;30.73;19.43;;;0.50;99.90;;;;;;5036726;28;20147;-89
2020/12/12 06:40:15;;;;;;;29.60;19.57;;;0.50;99.90;;;;;;5054204;28;20035;-90
2020/12/12 06:42:46;;;;;;;34.33;22.03;;;0.50;99.90;;;;;;5054165;28;20075;-90
2020/12/12 06:45:18;;;;;;;34.03;23.57;;;0.60;99.90;;;;;;5054106;28;20493;-90
2020/12/12 06:47:46;;;;;;;31.93;22.47;;;0.60;99.90;;;;;;5054251;28;20021;-90
2020/12/12 06:50:14;;;;;;;30.70;22.10;;;0.50;99.90;;;;;;5054056;28;20032;-90
2020/12/12 06:52:42;;;;;;;31.27;20.93;;;0.60;99.90;;;;;;5054279;28;20041;-89
2020/12/12 06:55:12;;;;;;;32.03;22.30;;;0.50;99.90;;;;;;5050700;28;20020;-88
2020/12/12 06:57:43;;;;;;;32.00;22.63;;;0.50;99.90;;;;;;5027607;28;20588;-88
2020/12/12 07:00:19;;;;;;;32.23;20.53;;;0.50;99.90;;;;;;5040412;28;20538;-88
2020/12/12 07:03:00;;;;;;;33.73;21.30;;;0.60;99.90;;;;;;5041793;28;20484;-88
2020/12/12 07:05:29;;;;;;;31.93;20.40;;;0.60;99.90;;;;;;5041876;28;20024;-88
2020/12/12 07:08:00;;;;;;;34.93;21.83;;;0.60;99.90;;;;;;5038794;28;20077;-88
2020/12/12 07:10:25;;;;;;;30.73;20.57;;;0.60;99.90;;;;;;5036448;28;20428;-88
2020/12/12 07:12:51;;;;;;;31.57;19.87;;;0.70;99.90;;;;;;5024601;28;20097;-88
2020/12/12 07:15:17;;;;;;;30.63;20.00;;;0.70;99.90;;;;;;5038615;28;20013;-88
2020/12/12 07:17:43;;;;;;;32.00;19.73;;;0.70;99.90;;;;;;5041709;28;20112;-88
2020/12/12 07:20:08;;;;;;;33.50;21.17;;;0.70;99.90;;;;;;5052272;28;20029;-87
2020/12/12 07:22:35;;;;;;;29.30;20.47;;;0.70;99.90;;;;;;5033652;28;20040;-90
2020/12/12 07:25:04;;;;;;;31.53;20.60;;;0.80;99.90;;;;;;5033520;28;20121;-89
2020/12/12 07:27:31;;;;;;;32.67;20.33;;;0.80;99.90;;;;;;5044536;28;20470;-90
2020/12/12 07:29:57;;;;;;;32.03;20.90;;;0.80;99.90;;;;;;5009841;28;20033;-86
2020/12/12 07:32:25;;;;;;;38.63;23.73;;;0.90;99.90;;;;;;5033453;28;20367;-86
2020/12/12 07:34:56;;;;;;;31.63;20.23;;;0.90;99.90;;;;;;5015447;28;20021;-86
2020/12/12 07:37:23;;;;;;;32.13;20.03;;;0.90;99.90;;;;;;5033106;28;20112;-86
2020/12/12 07:39:48;;;;;;;31.83;19.83;;;0.90;99.90;;;;;;5032990;28;20021;-86
2020/12/12 07:42:14;;;;;;;36.87;20.93;;;1.00;99.90;;;;;;5032945;28;20052;-86
2020/12/12 07:44:53;;;;;;;50.67;29.40;;;1.00;99.90;;;;;;5032948;28;20382;-85
2020/12/12 07:47:18;;;;;;;43.63;26.33;;;1.10;99.90;;;;;;5046917;28;20078;-85
2020/12/12 07:49:44;;;;;;;51.03;30.90;;;1.10;99.90;;;;;;5033315;28;20450;-86
2020/12/12 07:52:11;;;;;;;37.83;23.03;;;1.10;99.90;;;;;;5032956;28;20382;-86
2020/12/12 07:55:06;;;;;;;34.40;22.03;;;1.10;99.90;;;;;;5032947;28;20032;-85
2020/12/12 07:57:35;;;;;;;41.67;22.50;;;1.20;99.90;;;;;;5017150;28;20104;-87
2020/12/12 08:00:08;;;;;;;32.27;20.77;;;1.20;99.90;;;;;;5017080;28;20020;-94
2020/12/12 08:02:34;;;;;;;36.40;20.13;;;1.30;99.90;;;;;;5002334;28;20037;-94
2020/12/12 08:05:05;;;;;;;36.77;20.47;;;1.20;99.90;;;;;;5019436;28;20370;-92
2020/12/12 08:07:32;;;;;;;31.27;19.57;;;1.30;99.90;;;;;;5016136;28;20460;-85
2020/12/12 08:09:59;;;;;;;30.37;19.90;;;1.30;99.90;;;;;;5041074;28;20021;-93
2020/12/12 08:12:31;;;;;;;28.63;18.87;;;1.40;99.90;;;;;;5020934;28;20462;-94
2020/12/12 08:15:06;;;;;;;32.10;17.87;;;1.40;99.90;;;;;;5038978;28;20022;-93
2020/12/12 08:17:33;;;;;;;29.20;19.52;;;1.50;99.90;;;;;;5044541;28;20480;-92
2020/12/12 08:19:59;;;;;;;35.17;21.00;;;1.50;99.90;;;;;;5057120;28;20029;-86
2020/12/12 08:22:25;;;;;;;34.07;20.87;;;1.50;99.90;;;;;;5047742;28;20104;-86
2020/12/12 08:24:51;;;;;;;35.53;22.07;;;1.60;99.90;;;;;;5039948;28;20482;-86
2020/12/12 08:27:23;;;;;;;30.87;20.07;;;1.60;99.90;;;;;;5041520;28;20554;-86
2020/12/12 08:29:55;;;;;;;30.33;19.40;;;1.70;99.90;;;;;;5057212;28;20112;-91
2020/12/12 08:32:41;;;;;;;32.10;20.77;;;1.70;99.90;;;;;;5039496;28;20029;-92
2020/12/12 08:35:18;;;;;;;30.07;19.60;;;1.70;99.90;;;;;;5057222;28;20029;-91
2020/12/12 08:37:50;;;;;;;28.07;18.57;;;1.70;99.90;;;;;;5057809;28;20155;-93
2020/12/12 08:40:16;;;;;;;30.70;18.50;;;1.80;99.90;;;;;;5045110;28;20462;-94
2020/12/12 08:42:55;;;;;;;30.30;17.97;;;1.80;99.90;;;;;;5037574;28;20028;-90
2020/12/12 08:45:21;;;;;;;31.70;19.97;;;1.80;99.90;;;;;;5036839;28;20139;-95
2020/12/12 08:47:46;;;;;;;27.53;17.80;;;1.90;99.90;;;;;;5041160;28;20475;-93
2020/12/12 08:50:12;;;;;;;26.00;17.40;;;1.90;99.90;;;;;;5026806;28;20120;-94
2020/12/12 08:52:40;;;;;;;32.13;16.80;;;2.00;99.90;;;;;;5025611;28;20037;-95
2020/12/12 08:55:06;;;;;;;29.33;17.17;;;2.00;99.90;;;;;;5040254;28;20409;-95
2020/12/12 08:57:31;;;;;;;24.60;14.53;;;2.00;99.90;;;;;;5039368;28;20029;-94
2020/12/12 08:59:58;;;;;;;23.30;15.50;;;2.10;99.90;;;;;;5026955;28;20056;-94
2020/12/12 09:02:24;;;;;;;26.20;15.60;;;2.10;99.90;;;;;;5059648;28;20025;-95
2020/12/12 09:05:10;;;;;;;25.73;15.40;;;2.20;99.90;;;;;;5040189;28;20056;-86
2020/12/12 09:07:36;;;;;;;21.60;14.82;;;2.20;99.90;;;;;;5047858;28;20048;-86
2020/12/12 09:10:12;;;;;;;22.37;14.23;;;2.30;99.90;;;;;;5036871;28;20030;-87
2020/12/12 09:12:49;;;;;;;21.97;13.70;;;2.30;99.90;;;;;;5034468;28;20458;-82
2020/12/12 09:15:15;;;;;;;22.93;14.70;;;2.40;99.90;;;;;;5040337;28;20073;-85
2020/12/12 09:17:41;;;;;;;21.10;14.97;;;2.40;99.90;;;;;;5055755;28;20537;-84
2020/12/12 09:20:08;;;;;;;21.67;13.70;;;2.40;99.90;;;;;;5037349;28;20067;-84
2020/12/12 09:22:35;;;;;;;21.20;13.47;;;2.40;99.90;;;;;;5034288;28;20149;-83
2020/12/12 09:25:00;;;;;;;16.50;12.47;;;2.50;99.90;;;;;;5035445;28;20363;-84
2020/12/12 09:27:26;;;;;;;21.23;13.93;;;2.50;99.90;;;;;;5035606;28;20025;-84
2020/12/12 09:29:52;;;;;;;23.40;14.83;;;2.50;99.90;;;;;;5017835;28;20482;-84
2020/12/12 09:32:17;;;;;;;25.00;15.43;;;2.50;99.90;;;;;;5035960;28;20125;-84
2020/12/12 09:34:43;;;;;;;26.13;15.73;;;2.60;99.90;;;;;;5035120;28;20045;-84
2020/12/12 09:37:08;;;;;;;23.67;15.20;;;2.60;99.90;;;;;;5017323;28;20049;-83
2020/12/12 09:39:34;;;;;;;27.33;15.73;;;2.70;99.90;;;;;;5035395;28;20021;-84
2020/12/12 09:42:00;;;;;;;22.33;14.37;;;2.70;99.90;;;;;;5034948;28;20052;-84
2020/12/12 09:44:26;;;;;;;19.27;13.50;;;2.70;99.90;;;;;;5012555;28;20092;-83
2020/12/12 09:46:53;;;;;;;22.33;15.17;;;2.70;99.90;;;;;;5018282;28;20036;-83
2020/12/12 09:49:19;;;;;;;22.90;15.20;;;2.70;99.90;;;;;;5039991;28;20382;-84
2020/12/12 09:51:46;;;;;;;21.77;15.60;;;2.70;99.90;;;;;;5052109;28;20036;-83
2020/12/12 09:54:15;;;;;;;30.57;16.80;;;2.70;99.90;;;;;;5053054;28;20021;-83
2020/12/12 09:56:41;;;;;;;32.53;18.63;;;2.70;99.90;;;;;;5040470;28;20101;-83
2020/12/12 09:59:06;;;;;;;39.77;20.37;;;2.70;99.90;;;;;;5036804;28;20141;-83
2020/12/12 10:01:32;;;;;;;36.07;21.10;;;2.70;99.90;;;;;;5035233;28;20033;-83
2020/12/12 10:03:58;;;;;;;31.83;19.37;;;2.80;99.90;;;;;;5035214;28;20033;-83
2020/12/12 10:06:23;;;;;;;28.90;17.87;;;2.80;99.90;;;;;;5034931;28;20021;-83
2020/12/12 10:08:49;;;;;;;25.10;16.87;;;2.90;99.90;;;;;;5048850;28;20025;-83
2020/12/12 10:11:14;;;;;;;32.07;18.00;;;2.90;99.90;;;;;;5034763;28;20520;-83
2020/12/12 10:13:40;;;;;;;23.63;16.63;;;2.90;99.90;;;;;;5047207;28;20052;-83
2020/12/12 10:16:05;;;;;;;26.57;16.93;;;2.90;99.90;;;;;;5054354;28;20029;-83
2020/12/12 10:18:31;;;;;;;28.50;18.30;;;2.90;99.90;;;;;;5054111;28;20095;-80
2020/12/12 10:20:57;;;;;;;25.67;17.93;;;3.00;99.90;;;;;;5037182;28;20343;-84
2020/12/12 10:23:22;;;;;;;30.63;20.47;;;3.10;99.90;;;;;;5034143;28;20410;-83
2020/12/12 10:25:48;;;;;;;27.73;18.03;;;3.20;99.90;;;;;;5033917;28;20156;-78
2020/12/12 10:28:14;;;;;;;30.70;17.67;;;3.40;99.90;;;;;;5023607;28;20108;-83
2020/12/12 10:30:39;;;;;;;23.80;11.87;;;3.50;99.90;;;;;;5027853;28;20080;-83
2020/12/12 10:33:05;;;;;;;15.73;10.03;;;3.60;99.90;;;;;;5014791;28;20065;-83
2020/12/12 10:35:31;;;;;;;14.17;9.30;;;3.70;99.90;;;;;;5042314;28;20017;-83
2020/12/12 10:37:58;;;;;;;13.30;10.40;;;3.90;99.90;;;;;;5033924;28;20040;-83
2020/12/12 10:40:31;;;;;;;18.27;10.87;;;4.00;99.90;;;;;;5033756;28;20042;-83
2020/12/12 10:42:57;;;;;;;26.83;16.80;;;4.10;99.90;;;;;;5039263;28;20059;-82
2020/12/12 10:45:22;;;;;;;28.67;17.40;;;4.10;99.90;;;;;;5041950;28;20431;-83
2020/12/12 10:47:48;;;;;;;33.50;17.70;;;4.20;99.90;;;;;;5037098;28;20027;-83
2020/12/12 10:50:13;;;;;;;30.80;16.80;;;4.20;99.90;;;;;;5035744;28;20032;-83
2020/12/12 10:52:40;;;;;;;21.57;14.33;;;4.20;99.90;;;;;;5053514;28;20040;-83
2020/12/12 10:55:06;;;;;;;22.37;13.03;;;4.20;99.90;;;;;;5053509;28;20021;-83
2020/12/12 10:57:32;;;;;;;177.00;27.83;;;4.20;99.90;;;;;;5053279;28;20101;-83
2020/12/12 10:59:59;;;;;;;17.60;8.93;;;4.30;99.90;;;;;;5043098;28;20022;-83
2020/12/12 11:02:28;;;;;;;10.57;7.83;;;4.30;99.90;;;;;;5033560;28;20017;-83
2020/12/12 11:04:53;;;;;;;13.43;8.90;;;4.30;99.90;;;;;;5033608;28;20047;-84
2020/12/12 11:07:19;;;;;;;15.00;9.53;;;4.40;99.90;;;;;;5043780;28;20036;-83
2020/12/12 11:09:46;;;;;;;15.87;8.60;;;4.50;99.90;;;;;;5035077;28;20098;-84
2020/12/12 11:12:14;;;;;;;12.57;8.73;;;4.60;99.90;;;;;;5013782;28;20044;-83
2020/12/12 11:14:41;;;;;;;13.43;9.53;;;4.50;99.90;;;;;;5028150;28;20021;-84
2020/12/12 11:17:06;;;;;;;13.53;9.50;;;4.60;99.90;;;;;;5015473;28;20017;-83
2020/12/12 11:19:32;;;;;;;13.70;9.27;;;4.50;99.90;;;;;;5033062;28;20079;-83
2020/12/12 11:21:59;;;;;;;11.37;8.40;;;4.50;99.90;;;;;;5038411;28;20100;-84
2020/12/12 11:24:25;;;;;;;12.83;8.93;;;4.70;99.90;;;;;;5038512;28;20025;-84
2020/12/12 11:26:51;;;;;;;13.80;8.60;;;4.80;99.90;;;;;;5033013;28;20076;-84
2020/12/12 11:29:17;;;;;;;12.20;8.70;;;4.90;99.90;;;;;;5033172;28;20013;-84
2020/12/12 11:31:48;;;;;;;12.90;8.63;;;4.90;99.90;;;;;;5032901;28;20425;-84
2020/12/12 11:34:23;;;;;;;13.50;8.33;;;4.90;99.90;;;;;;5032514;28;20126;-83
2020/12/12 11:47:27;;;;;;;8.87;6.60;;;5.20;99.90;;;;;;5032988;28;20033;-84
2020/12/12 11:49:53;;;;;;;11.93;7.03;;;5.10;99.90;;;;;;5032860;28;20369;-84
2020/12/12 11:52:19;;;;;;;9.03;6.63;;;5.10;99.90;;;;;;5032785;28;20539;-83
2020/12/12 11:54:45;;;;;;;10.10;7.10;;;5.00;99.90;;;;;;5028275;28;20057;-84
2020/12/12 11:57:10;;;;;;;9.77;7.03;;;5.00;99.90;;;;;;5023401;28;20029;-84
2020/12/12 11:59:36;;;;;;;11.10;7.47;;;5.00;99.90;;;;;;5032824;28;20030;-84
2020/12/12 12:02:03;;;;;;;12.00;6.93;;;5.00;99.90;;;;;;5032882;28;20083;-84
2020/12/12 12:04:28;;;;;;;9.73;6.57;;;5.00;99.90;;;;;;5014949;28;20033;-84
2020/12/12 12:06:56;;;;;;;8.77;6.37;;;4.90;99.90;;;;;;5021436;28;20075;-84
2020/12/12 12:09:32;;;;;;;8.57;6.07;;;5.00;99.90;;;;;;5039691;28;20017;-84
2020/12/12 12:11:58;;;;;;;8.07;6.10;;;5.00;99.90;;;;;;5001521;28;20113;-84
2020/12/12 12:14:23;;;;;;;137.57;12.77;;;5.00;99.90;;;;;;5033182;28;20096;-84
2020/12/12 12:16:49;;;;;;;10.10;5.73;;;5.00;99.90;;;;;;5032494;28;20025;-87
2020/12/12 12:19:18;;;;;;;11.77;6.20;;;5.00;99.90;;;;;;5033807;28;20076;-92
2020/12/12 12:21:47;;;;;;;8.50;5.97;;;5.00;99.90;;;;;;5016438;28;20032;-90
2020/12/12 12:24:15;;;;;;;12.33;6.40;;;5.00;99.90;;;;;;5017366;28;20374;-91
2020/12/12 12:26:42;;;;;;;11.10;7.40;;;4.90;99.90;;;;;;5034541;28;20100;-92
2020/12/12 12:29:11;;;;;;;10.50;7.10;;;5.00;99.90;;;;;;5014056;28;20057;-88
2020/12/12 12:31:37;;;;;;;9.43;6.53;;;5.00;99.90;;;;;;5008238;28;20458;-96
2020/12/12 12:34:03;;;;;;;11.97;6.27;;;5.00;99.90;;;;;;5020615;28;20071;-95
2020/12/12 12:36:29;;;;;;;10.27;5.93;;;5.00;99.90;;;;;;4997964;28;20033;-94
2020/12/12 12:38:57;;;;;;;8.87;5.67;;;5.10;99.90;;;;;;4998415;28;20030;-93
2020/12/12 12:41:26;;;;;;;9.43;6.40;;;5.10;99.90;;;;;;5043753;28;20038;-95
2020/12/12 12:43:52;;;;;;;10.37;6.50;;;5.10;99.90;;;;;;5017253;28;20028;-94
2020/12/12 12:46:18;;;;;;;9.57;6.07;;;5.10;99.90;;;;;;5028057;28;20025;-93
2020/12/12 12:48:44;;;;;;;8.93;5.50;;;5.20;99.90;;;;;;5039141;28;20374;-96